sensor_id;sensor_type;location;lat;lon;timestamp;temperature;humidity
39865;DHT22;25538;48.392;9.976;2022-10-15T00:01:44;12.80;99.90
39865;DHT22;25538;48.392;9.976;2022-10-15T00:04:10;12.80;99.90
39865;DHT22;25538;48.392;9.976;2022-10-15T00:06:36;12.80;99.90
39865;DHT22;25538;48.392;9.976;2022-10-15T00:09:03;12.70;99.90
39865;DHT22;25538;48.392;9.976;2022-10-15T00:11:29;12.80;99.90
39865;DHT22;25538;48.392;9.976;2022-10-15T00:13:58;12.70;99.90
39865;DHT22;25538;48.392;9.976;2022-10-15T00:16:26;12.80;99.90
39865;DHT22;25538;48.392;9.976;2022-10-15T00:18:56;12.70;99.90
39865;DHT22;25538;48.392;9.976;2022-10-15T00:21:22;12.80;99.90
39865;DHT22;25538;48.392;9.976;2022-10-15T00:23:48;12.80;99.90
39865;DHT22;25538;48.392;9.976;2022-10-15T00:26:20;12.80;99.90
39865;DHT22;25538;48.392;9.976;2022-10-15T00:28:48;12.70;99.90
39865;DHT22;25538;48.392;9.976;2022-10-15T00:31:16;12.80;99.90
39865;DHT22;25538;48.392;9.976;2022-10-15T00:33:42;12.80;99.90
39865;DHT22;25538;48.392;9.976;2022-10-15T00:36:23;12.80;99.90
39865;DHT22;25538;48.392;9.976;2022-10-15T00:38:49;12.80;99.90
39865;DHT22;25538;48.392;9.976;2022-10-15T00:41:22;12.80;99.90
39865;DHT22;25538;48.392;9.976;2022-10-15T00:43:50;12.80;99.90
39865;DHT22;25538;48.392;9.976;2022-10-15T00:48:59;12.80;99.90
39865;DHT22;25538;48.392;9.976;2022-10-15T00:51:30;12.90;99.90
39865;DHT22;25538;48.392;9.976;2022-10-15T00:53:58;12.90;99.90
39865;DHT22;25538;48.392;9.976;2022-10-15T00:56:26;12.80;99.90
39865;DHT22;25538;48.392;9.976;2022-10-15T00:58:54;12.80;99.90
39865;DHT22;25538;48.392;9.976;2022-10-15T01:01:21;12.90;99.90
39865;DHT22;25538;48.392;9.976;2022-10-15T01:03:52;12.90;99.90
39865;DHT22;25538;48.392;9.976;2022-10-15T01:06:18;12.90;99.90
39865;DHT22;25538;48.392;9.976;2022-10-15T01:08:44;12.90;99.90
39865;DHT22;25538;48.392;9.976;2022-10-15T01:16:54;12.90;99.90
39865;DHT22;25538;48.392;9.976;2022-10-15T01:27:31;12.90;99.90
39865;DHT22;25538;48.392;9.976;2022-10-15T01:30:04;12.90;99.90
39865;DHT22;25538;48.392;9.976;2022-10-15T01:32:35;12.90;99.90
39865;DHT22;25538;48.392;9.976;2022-10-15T01:35:06;13.00;99.90
39865;DHT22;25538;48.392;9.976;2022-10-15T01:40:12;13.00;99.90
39865;DHT22;25538;48.392;9.976;2022-10-15T01:42:57;12.90;99.90
39865;DHT22;25538;48.392;9.976;2022-10-15T01:45:37;13.00;99.90
39865;DHT22;25538;48.392;9.976;2022-10-15T01:48:10;13.00;99.90
39865;DHT22;25538;48.392;9.976;2022-10-15T01:50:41;13.00;99.90
39865;DHT22;25538;48.392;9.976;2022-10-15T01:53:08;13.00;99.90
39865;DHT22;25538;48.392;9.976;2022-10-15T01:55:36;13.00;99.90
39865;DHT22;25538;48.392;9.976;2022-10-15T01:58:07;13.00;99.90
39865;DHT22;25538;48.392;9.976;2022-10-15T02:00:34;13.00;99.90
39865;DHT22;25538;48.392;9.976;2022-10-15T02:03:01;13.10;99.90
39865;DHT22;25538;48.392;9.976;2022-10-15T02:05:38;13.10;99.90
39865;DHT22;25538;48.392;9.976;2022-10-15T02:13:40;13.10;99.90
39865;DHT22;25538;48.392;9.976;2022-10-15T02:16:43;13.20;99.90
39865;DHT22;25538;48.392;9.976;2022-10-15T02:19:59;13.20;99.90
39865;DHT22;25538;48.392;9.976;2022-10-15T02:22:42;13.20;99.90
39865;DHT22;25538;48.392;9.976;2022-10-15T02:25:17;13.20;99.90
39865;DHT22;25538;48.392;9.976;2022-10-15T02:27:47;13.20;99.90
39865;DHT22;25538;48.392;9.976;2022-10-15T02:30:14;13.20;99.90
39865;DHT22;25538;48.392;9.976;2022-10-15T02:32:42;13.30;99.90
39865;DHT22;25538;48.392;9.976;2022-10-15T02:35:10;13.30;99.90
39865;DHT22;25538;48.392;9.976;2022-10-15T02:37:39;13.30;99.90
39865;DHT22;25538;48.392;9.976;2022-10-15T02:40:07;13.30;99.90
39865;DHT22;25538;48.392;9.976;2022-10-15T02:42:34;13.30;99.90
39865;DHT22;25538;48.392;9.976;2022-10-15T02:45:00;13.40;99.90
39865;DHT22;25538;48.392;9.976;2022-10-15T02:47:26;13.40;99.90
39865;DHT22;25538;48.392;9.976;2022-10-15T02:49:52;13.40;99.90
39865;DHT22;25538;48.392;9.976;2022-10-15T02:52:18;13.40;99.90
39865;DHT22;25538;48.392;9.976;2022-10-15T02:54:44;13.40;99.90
39865;DHT22;25538;48.392;9.976;2022-10-15T02:57:10;13.50;99.90
39865;DHT22;25538;48.392;9.976;2022-10-15T02:59:36;13.50;99.90
39865;DHT22;25538;48.392;9.976;2022-10-15T03:02:02;13.50;99.90
39865;DHT22;25538;48.392;9.976;2022-10-15T03:04:27;13.60;99.90
39865;DHT22;25538;48.392;9.976;2022-10-15T03:06:53;13.60;99.90
39865;DHT22;25538;48.392;9.976;2022-10-15T03:09:19;13.60;99.90
39865;DHT22;25538;48.392;9.976;2022-10-15T03:11:45;13.60;99.90
39865;DHT22;25538;48.392;9.976;2022-10-15T03:14:11;13.60;99.90
39865;DHT22;25538;48.392;9.976;2022-10-15T03:16:37;13.60;99.90
39865;DHT22;25538;48.392;9.976;2022-10-15T03:19:03;13.70;99.90
39865;DHT22;25538;48.392;9.976;2022-10-15T03:21:29;13.70;99.90
39865;DHT22;25538;48.392;9.976;2022-10-15T03:23:57;13.70;99.90
39865;DHT22;25538;48.392;9.976;2022-10-15T03:26:23;13.70;99.90
39865;DHT22;25538;48.392;9.976;2022-10-15T03:28:49;13.70;99.90
39865;DHT22;25538;48.392;9.976;2022-10-15T03:31:15;13.70;99.90
39865;DHT22;25538;48.392;9.976;2022-10-15T03:33:41;13.80;99.90
39865;DHT22;25538;48.392;9.976;2022-10-15T03:36:07;13.80;99.90
39865;DHT22;25538;48.392;9.976;2022-10-15T03:38:33;13.80;99.90
39865;DHT22;25538;48.392;9.976;2022-10-15T03:40:59;13.80;99.90
39865;DHT22;25538;48.392;9.976;2022-10-15T03:43:25;13.80;99.90
39865;DHT22;25538;48.392;9.976;2022-10-15T03:45:52;13.80;99.90
39865;DHT22;25538;48.392;9.976;2022-10-15T03:48:18;13.80;99.90
39865;DHT22;25538;48.392;9.976;2022-10-15T03:50:45;13.80;99.90
39865;DHT22;25538;48.392;9.976;2022-10-15T03:53:11;13.80;99.90
39865;DHT22;25538;48.392;9.976;2022-10-15T03:55:37;13.80;99.90
39865;DHT22;25538;48.392;9.976;2022-10-15T03:58:03;13.80;99.90
39865;DHT22;25538;48.392;9.976;2022-10-15T04:00:29;13.80;99.90
39865;DHT22;25538;48.392;9.976;2022-10-15T04:02:55;13.80;99.90
39865;DHT22;25538;48.392;9.976;2022-10-15T04:05:21;13.90;99.90
39865;DHT22;25538;48.392;9.976;2022-10-15T04:07:47;13.90;99.90
39865;DHT22;25538;48.392;9.976;2022-10-15T04:10:13;13.90;99.90
39865;DHT22;25538;48.392;9.976;2022-10-15T04:12:39;13.90;99.90
39865;DHT22;25538;48.392;9.976;2022-10-15T04:15:05;13.90;99.90
39865;DHT22;25538;48.392;9.976;2022-10-15T04:17:31;13.90;99.90
39865;DHT22;25538;48.392;9.976;2022-10-15T04:19:57;13.90;99.90
39865;DHT22;25538;48.392;9.976;2022-10-15T04:22:23;13.90;99.90
39865;DHT22;25538;48.392;9.976;2022-10-15T04:24:49;13.90;99.90
39865;DHT22;25538;48.392;9.976;2022-10-15T04:27:15;13.90;99.90
39865;DHT22;25538;48.392;9.976;2022-10-15T04:29:41;13.90;99.90
39865;DHT22;25538;48.392;9.976;2022-10-15T04:32:11;13.90;99.90
39865;DHT22;25538;48.392;9.976;2022-10-15T04:34:37;13.90;99.90
39865;DHT22;25538;48.392;9.976;2022-10-15T04:37:04;13.90;99.90
39865;DHT22;25538;48.392;9.976;2022-10-15T04:39:30;13.90;99.90
39865;DHT22;25538;48.392;9.976;2022-10-15T04:41:55;13.90;99.90
39865;DHT22;25538;48.392;9.976;2022-10-15T04:44:21;13.90;99.90
39865;DHT22;25538;48.392;9.976;2022-10-15T04:46:47;13.90;99.90
39865;DHT22;25538;48.392;9.976;2022-10-15T04:49:13;13.90;99.90
39865;DHT22;25538;48.392;9.976;2022-10-15T04:51:39;13.90;99.90
39865;DHT22;25538;48.392;9.976;2022-10-15T04:54:05;13.90;99.90
39865;DHT22;25538;48.392;9.976;2022-10-15T04:56:31;13.90;99.90
39865;DHT22;25538;48.392;9.976;2022-10-15T04:58:57;13.90;99.90
39865;DHT22;25538;48.392;9.976;2022-10-15T05:01:23;13.90;99.90
39865;DHT22;25538;48.392;9.976;2022-10-15T05:03:49;13.90;99.90
39865;DHT22;25538;48.392;9.976;2022-10-15T05:06:19;13.90;99.90
39865;DHT22;25538;48.392;9.976;2022-10-15T05:08:46;13.90;99.90
39865;DHT22;25538;48.392;9.976;2022-10-15T05:11:14;13.90;99.90
39865;DHT22;25538;48.392;9.976;2022-10-15T05:13:41;13.90;99.90
39865;DHT22;25538;48.392;9.976;2022-10-15T05:18:46;13.90;99.90
39865;DHT22;25538;48.392;9.976;2022-10-15T05:21:13;13.90;99.90
39865;DHT22;25538;48.392;9.976;2022-10-15T05:23:39;14.00;99.90
39865;DHT22;25538;48.392;9.976;2022-10-15T05:26:09;14.00;99.90
39865;DHT22;25538;48.392;9.976;2022-10-15T05:28:36;14.00;99.90
39865;DHT22;25538;48.392;9.976;2022-10-15T05:31:10;14.00;99.90
39865;DHT22;25538;48.392;9.976;2022-10-15T05:33:37;14.00;99.90
39865;DHT22;25538;48.392;9.976;2022-10-15T05:38:39;14.00;99.90
39865;DHT22;25538;48.392;9.976;2022-10-15T05:41:05;14.00;99.90
39865;DHT22;25538;48.392;9.976;2022-10-15T05:43:31;14.00;99.90
39865;DHT22;25538;48.392;9.976;2022-10-15T05:45:57;14.00;99.90
39865;DHT22;25538;48.392;9.976;2022-10-15T05:48:23;14.00;99.90
39865;DHT22;25538;48.392;9.976;2022-10-15T05:50:49;14.00;99.90
39865;DHT22;25538;48.392;9.976;2022-10-15T05:53:15;14.00;99.90
39865;DHT22;25538;48.392;9.976;2022-10-15T05:55:41;14.00;99.90
39865;DHT22;25538;48.392;9.976;2022-10-15T05:58:07;14.00;99.90
39865;DHT22;25538;48.392;9.976;2022-10-15T06:00:34;14.00;99.90
39865;DHT22;25538;48.392;9.976;2022-10-15T06:03:00;14.00;99.90
39865;DHT22;25538;48.392;9.976;2022-10-15T06:05:26;14.00;99.90
39865;DHT22;25538;48.392;9.976;2022-10-15T06:07:52;14.10;99.90
39865;DHT22;25538;48.392;9.976;2022-10-15T06:10:18;14.10;99.90
39865;DHT22;25538;48.392;9.976;2022-10-15T06:12:48;14.10;99.90
39865;DHT22;25538;48.392;9.976;2022-10-15T06:15:15;14.10;99.90
39865;DHT22;25538;48.392;9.976;2022-10-15T06:17:41;14.10;99.90
39865;DHT22;25538;48.392;9.976;2022-10-15T06:20:08;14.10;99.90
39865;DHT22;25538;48.392;9.976;2022-10-15T06:22:34;14.10;99.90
39865;DHT22;25538;48.392;9.976;2022-10-15T06:25:00;14.10;99.90
39865;DHT22;25538;48.392;9.976;2022-10-15T06:27:26;14.10;99.90
39865;DHT22;25538;48.392;9.976;2022-10-15T06:29:52;14.10;99.90
39865;DHT22;25538;48.392;9.976;2022-10-15T06:32:18;14.10;99.90
39865;DHT22;25538;48.392;9.976;2022-10-15T06:34:44;14.10;99.90
39865;DHT22;25538;48.392;9.976;2022-10-15T06:37:10;14.10;99.90
39865;DHT22;25538;48.392;9.976;2022-10-15T06:39:36;14.20;99.90
39865;DHT22;25538;48.392;9.976;2022-10-15T06:42:02;14.20;99.90
39865;DHT22;25538;48.392;9.976;2022-10-15T06:44:28;14.20;99.90
39865;DHT22;25538;48.392;9.976;2022-10-15T06:46:54;14.20;99.90
39865;DHT22;25538;48.392;9.976;2022-10-15T06:49:19;14.30;99.90
39865;DHT22;25538;48.392;9.976;2022-10-15T06:51:45;14.30;99.90
39865;DHT22;25538;48.392;9.976;2022-10-15T06:54:11;14.30;99.90
39865;DHT22;25538;48.392;9.976;2022-10-15T06:56:37;14.30;99.90
39865;DHT22;25538;48.392;9.976;2022-10-15T06:59:04;14.30;99.90
39865;DHT22;25538;48.392;9.976;2022-10-15T07:01:30;14.40;99.90
39865;DHT22;25538;48.392;9.976;2022-10-15T07:03:56;14.40;99.90
39865;DHT22;25538;48.392;9.976;2022-10-15T07:06:22;14.40;99.90
39865;DHT22;25538;48.392;9.976;2022-10-15T07:08:48;14.40;99.90
39865;DHT22;25538;48.392;9.976;2022-10-15T07:11:14;14.40;99.90
39865;DHT22;25538;48.392;9.976;2022-10-15T07:13:40;14.40;99.90
39865;DHT22;25538;48.392;9.976;2022-10-15T07:16:09;14.40;99.90
39865;DHT22;25538;48.392;9.976;2022-10-15T07:18:35;14.50;99.90
39865;DHT22;25538;48.392;9.976;2022-10-15T07:21:03;14.50;99.90
39865;DHT22;25538;48.392;9.976;2022-10-15T07:23:29;14.60;99.90
39865;DHT22;25538;48.392;9.976;2022-10-15T07:25:59;14.60;99.90
39865;DHT22;25538;48.392;9.976;2022-10-15T07:28:25;14.60;99.90
39865;DHT22;25538;48.392;9.976;2022-10-15T07:30:52;14.70;99.90
39865;DHT22;25538;48.392;9.976;2022-10-15T07:33:18;14.80;99.90
39865;DHT22;25538;48.392;9.976;2022-10-15T07:35:44;14.70;99.90
39865;DHT22;25538;48.392;9.976;2022-10-15T07:38:10;14.70;99.90
39865;DHT22;25538;48.392;9.976;2022-10-15T07:40:36;14.70;99.90
39865;DHT22;25538;48.392;9.976;2022-10-15T07:43:02;14.80;99.90
39865;DHT22;25538;48.392;9.976;2022-10-15T07:45:27;14.90;99.90
39865;DHT22;25538;48.392;9.976;2022-10-15T07:47:53;15.00;99.90
39865;DHT22;25538;48.392;9.976;2022-10-15T07:50:19;15.10;99.90
39865;DHT22;25538;48.392;9.976;2022-10-15T07:52:46;14.90;99.90
39865;DHT22;25538;48.392;9.976;2022-10-15T07:55:12;15.00;99.90
39865;DHT22;25538;48.392;9.976;2022-10-15T07:57:38;15.10;99.90
39865;DHT22;25538;48.392;9.976;2022-10-15T08:00:05;15.10;99.90
39865;DHT22;25538;48.392;9.976;2022-10-15T08:02:31;15.10;99.90
39865;DHT22;25538;48.392;9.976;2022-10-15T08:04:57;15.00;99.90
39865;DHT22;25538;48.392;9.976;2022-10-15T08:07:23;15.00;99.90
39865;DHT22;25538;48.392;9.976;2022-10-15T08:09:49;15.00;99.90
39865;DHT22;25538;48.392;9.976;2022-10-15T08:12:14;15.00;99.90
39865;DHT22;25538;48.392;9.976;2022-10-15T08:14:40;15.00;99.90
39865;DHT22;25538;48.392;9.976;2022-10-15T08:17:06;15.00;99.90
39865;DHT22;25538;48.392;9.976;2022-10-15T08:19:32;15.00;99.90
39865;DHT22;25538;48.392;9.976;2022-10-15T08:21:58;15.00;99.90
39865;DHT22;25538;48.392;9.976;2022-10-15T08:24:24;15.00;99.90
39865;DHT22;25538;48.392;9.976;2022-10-15T08:26:50;15.10;99.90
39865;DHT22;25538;48.392;9.976;2022-10-15T08:29:16;15.10;99.90
39865;DHT22;25538;48.392;9.976;2022-10-15T08:31:42;15.20;99.90
39865;DHT22;25538;48.392;9.976;2022-10-15T08:34:08;15.30;99.90
39865;DHT22;25538;48.392;9.976;2022-10-15T08:36:35;15.30;99.90
39865;DHT22;25538;48.392;9.976;2022-10-15T08:39:00;15.30;99.90
39865;DHT22;25538;48.392;9.976;2022-10-15T08:43:59;15.20;99.90
39865;DHT22;25538;48.392;9.976;2022-10-15T08:46:36;15.30;99.90
39865;DHT22;25538;48.392;9.976;2022-10-15T08:49:04;15.30;99.90
39865;DHT22;25538;48.392;9.976;2022-10-15T08:51:41;15.40;99.90
39865;DHT22;25538;48.392;9.976;2022-10-15T08:54:17;15.40;99.90
39865;DHT22;25538;48.392;9.976;2022-10-15T08:56:46;15.40;99.90
39865;DHT22;25538;48.392;9.976;2022-10-15T08:59:29;15.60;99.90
39865;DHT22;25538;48.392;9.976;2022-10-15T09:02:15;15.90;99.90
39865;DHT22;25538;48.392;9.976;2022-10-15T09:04:57;16.20;99.90
39865;DHT22;25538;48.392;9.976;2022-10-15T09:07:40;16.20;99.90
39865;DHT22;25538;48.392;9.976;2022-10-15T09:10:13;16.10;99.90
39865;DHT22;25538;48.392;9.976;2022-10-15T09:13:06;16.20;99.90
39865;DHT22;25538;48.392;9.976;2022-10-15T09:15:40;16.60;99.90
39865;DHT22;25538;48.392;9.976;2022-10-15T09:18:17;16.80;99.90
39865;DHT22;25538;48.392;9.976;2022-10-15T09:20:45;16.70;99.90
39865;DHT22;25538;48.392;9.976;2022-10-15T09:23:21;16.60;99.90
39865;DHT22;25538;48.392;9.976;2022-10-15T09:25:57;16.50;99.90
39865;DHT22;25538;48.392;9.976;2022-10-15T09:28:27;16.60;99.90
39865;DHT22;25538;48.392;9.976;2022-10-15T09:30:57;16.70;99.90
39865;DHT22;25538;48.392;9.976;2022-10-15T09:33:37;17.00;99.90
39865;DHT22;25538;48.392;9.976;2022-10-15T09:36:15;17.10;99.90
39865;DHT22;25538;48.392;9.976;2022-10-15T09:38:48;17.20;99.90
39865;DHT22;25538;48.392;9.976;2022-10-15T09:41:58;17.30;99.90
39865;DHT22;25538;48.392;9.976;2022-10-15T09:44:41;17.60;99.90
39865;DHT22;25538;48.392;9.976;2022-10-15T09:47:27;17.90;99.90
39865;DHT22;25538;48.392;9.976;2022-10-15T09:49:53;18.40;99.90
39865;DHT22;25538;48.392;9.976;2022-10-15T09:52:54;18.80;99.90
39865;DHT22;25538;48.392;9.976;2022-10-15T10:01:05;17.90;99.90
39865;DHT22;25538;48.392;9.976;2022-10-15T10:03:33;17.80;99.90
39865;DHT22;25538;48.392;9.976;2022-10-15T10:06:09;17.70;99.90
39865;DHT22;25538;48.392;9.976;2022-10-15T10:08:53;17.50;99.90
39865;DHT22;25538;48.392;9.976;2022-10-15T10:11:22;17.50;99.90
39865;DHT22;25538;48.392;9.976;2022-10-15T10:16:16;17.50;99.90
39865;DHT22;25538;48.392;9.976;2022-10-15T10:18:42;17.60;99.90
39865;DHT22;25538;48.392;9.976;2022-10-15T10:21:30;17.50;99.90
39865;DHT22;25538;48.392;9.976;2022-10-15T10:24:17;17.70;99.90
39865;DHT22;25538;48.392;9.976;2022-10-15T10:26:45;18.80;99.90
39865;DHT22;25538;48.392;9.976;2022-10-15T10:29:17;19.60;99.90
39865;DHT22;25538;48.392;9.976;2022-10-15T10:31:44;19.60;99.90
39865;DHT22;25538;48.392;9.976;2022-10-15T10:34:17;19.30;99.90
39865;DHT22;25538;48.392;9.976;2022-10-15T10:36:48;19.00;99.90
39865;DHT22;25538;48.392;9.976;2022-10-15T10:39:30;18.80;99.90
39865;DHT22;25538;48.392;9.976;2022-10-15T10:42:08;18.80;99.90
39865;DHT22;25538;48.392;9.976;2022-10-15T10:44:46;19.20;99.90
39865;DHT22;25538;48.392;9.976;2022-10-15T10:47:35;19.30;99.90
39865;DHT22;25538;48.392;9.976;2022-10-15T10:50:27;19.10;99.90
39865;DHT22;25538;48.392;9.976;2022-10-15T10:52:54;18.90;99.90
39865;DHT22;25538;48.392;9.976;2022-10-15T10:55:22;19.00;99.90
39865;DHT22;25538;48.392;9.976;2022-10-15T10:57:56;19.50;99.90
39865;DHT22;25538;48.392;9.976;2022-10-15T11:00:38;19.30;99.90
39865;DHT22;25538;48.392;9.976;2022-10-15T11:03:21;19.20;99.90
39865;DHT22;25538;48.392;9.976;2022-10-15T11:05:50;19.10;99.90
39865;DHT22;25538;48.392;9.976;2022-10-15T11:11:25;19.70;99.90
39865;DHT22;25538;48.392;9.976;2022-10-15T11:16:41;21.30;99.90
39865;DHT22;25538;48.392;9.976;2022-10-15T11:19:37;21.70;99.90
39865;DHT22;25538;48.392;9.976;2022-10-15T11:50:24;23.10;99.90
39865;DHT22;25538;48.392;9.976;2022-10-15T11:55:40;21.80;99.90
39865;DHT22;25538;48.392;9.976;2022-10-15T11:58:13;21.60;99.90
39865;DHT22;25538;48.392;9.976;2022-10-15T12:00:50;21.50;99.90
39865;DHT22;25538;48.392;9.976;2022-10-15T12:03:23;21.90;99.90
39865;DHT22;25538;48.392;9.976;2022-10-15T12:06:00;22.50;99.90
39865;DHT22;25538;48.392;9.976;2022-10-15T12:08:33;22.70;99.90
39865;DHT22;25538;48.392;9.976;2022-10-15T12:11:31;21.80;99.90
39865;DHT22;25538;48.392;9.976;2022-10-15T12:19:43;20.10;99.90
39865;DHT22;25538;48.392;9.976;2022-10-15T12:22:10;20.20;99.90
39865;DHT22;25538;48.392;9.976;2022-10-15T12:29:51;20.00;99.90
39865;DHT22;25538;48.392;9.976;2022-10-15T12:32:45;20.10;99.90
39865;DHT22;25538;48.392;9.976;2022-10-15T12:37:43;20.20;99.90
39865;DHT22;25538;48.392;9.976;2022-10-15T12:45:23;20.60;99.90
39865;DHT22;25538;48.392;9.976;2022-10-15T12:47:55;20.60;99.90
39865;DHT22;25538;48.392;9.976;2022-10-15T12:50:37;20.80;99.90
39865;DHT22;25538;48.392;9.976;2022-10-15T12:56:18;22.80;99.90
39865;DHT22;25538;48.392;9.976;2022-10-15T12:58:46;25.40;99.90
39865;DHT22;25538;48.392;9.976;2022-10-15T13:08:54;27.90;99.90
39865;DHT22;25538;48.392;9.976;2022-10-15T13:11:27;27.40;99.90
39865;DHT22;25538;48.392;9.976;2022-10-15T13:16:52;25.20;99.90
39865;DHT22;25538;48.392;9.976;2022-10-15T13:19:30;24.00;99.90
39865;DHT22;25538;48.392;9.976;2022-10-15T13:21:59;23.10;99.90
39865;DHT22;25538;48.392;9.976;2022-10-15T13:24:28;22.10;99.90
39865;DHT22;25538;48.392;9.976;2022-10-15T13:26:56;21.20;99.90
39865;DHT22;25538;48.392;9.976;2022-10-15T13:29:27;20.70;99.90
39865;DHT22;25538;48.392;9.976;2022-10-15T13:31:55;20.40;99.90
39865;DHT22;25538;48.392;9.976;2022-10-15T13:34:33;20.00;99.90
39865;DHT22;25538;48.392;9.976;2022-10-15T13:37:01;19.70;99.90
39865;DHT22;25538;48.392;9.976;2022-10-15T13:39:37;19.40;99.90
39865;DHT22;25538;48.392;9.976;2022-10-15T13:44:41;20.50;99.90
39865;DHT22;25538;48.392;9.976;2022-10-15T13:47:33;21.90;99.90
39865;DHT22;25538;48.392;9.976;2022-10-15T13:50:25;24.10;99.90
39865;DHT22;25538;48.392;9.976;2022-10-15T13:55:23;24.30;99.90
39865;DHT22;25538;48.392;9.976;2022-10-15T13:57:58;22.90;99.90
39865;DHT22;25538;48.392;9.976;2022-10-15T14:00:33;22.40;99.90
39865;DHT22;25538;48.392;9.976;2022-10-15T14:05:46;21.60;99.90
39865;DHT22;25538;48.392;9.976;2022-10-15T14:08:17;21.40;99.90
39865;DHT22;25538;48.392;9.976;2022-10-15T14:10:43;21.70;99.90
39865;DHT22;25538;48.392;9.976;2022-10-15T14:13:10;22.80;99.90
39865;DHT22;25538;48.392;9.976;2022-10-15T14:18:15;25.20;99.90
39865;DHT22;25538;48.392;9.976;2022-10-15T14:20:46;25.40;99.90
39865;DHT22;25538;48.392;9.976;2022-10-15T14:23:21;25.10;99.90
39865;DHT22;25538;48.392;9.976;2022-10-15T14:26:14;23.80;99.90
39865;DHT22;25538;48.392;9.976;2022-10-15T14:28:42;22.40;99.90
39865;DHT22;25538;48.392;9.976;2022-10-15T14:31:35;21.40;99.90
39865;DHT22;25538;48.392;9.976;2022-10-15T14:34:01;20.90;99.90
39865;DHT22;25538;48.392;9.976;2022-10-15T14:36:30;20.60;99.90
39865;DHT22;25538;48.392;9.976;2022-10-15T14:39:24;20.50;99.90
39865;DHT22;25538;48.392;9.976;2022-10-15T14:44:22;20.10;99.90
39865;DHT22;25538;48.392;9.976;2022-10-15T14:46:50;19.80;99.90
39865;DHT22;25538;48.392;9.976;2022-10-15T14:49:34;19.70;99.90
39865;DHT22;25538;48.392;9.976;2022-10-15T14:52:10;19.60;99.90
39865;DHT22;25538;48.392;9.976;2022-10-15T14:54:40;19.50;99.90
39865;DHT22;25538;48.392;9.976;2022-10-15T14:57:23;19.50;99.90
39865;DHT22;25538;48.392;9.976;2022-10-15T14:59:52;19.70;99.90
39865;DHT22;25538;48.392;9.976;2022-10-15T15:02:22;19.80;99.90
39865;DHT22;25538;48.392;9.976;2022-10-15T15:07:34;20.40;99.90
39865;DHT22;25538;48.392;9.976;2022-10-15T15:09:59;20.30;99.90
39865;DHT22;25538;48.392;9.976;2022-10-15T15:12:27;20.20;99.90
39865;DHT22;25538;48.392;9.976;2022-10-15T15:14:53;20.00;99.90
39865;DHT22;25538;48.392;9.976;2022-10-15T15:17:21;19.80;99.90
39865;DHT22;25538;48.392;9.976;2022-10-15T15:19:49;19.60;99.90
39865;DHT22;25538;48.392;9.976;2022-10-15T15:22:22;19.40;99.90
39865;DHT22;25538;48.392;9.976;2022-10-15T15:24:49;19.20;99.90
39865;DHT22;25538;48.392;9.976;2022-10-15T15:27:28;19.00;99.90
39865;DHT22;25538;48.392;9.976;2022-10-15T15:29:55;18.90;99.90
39865;DHT22;25538;48.392;9.976;2022-10-15T15:32:21;18.80;99.90
39865;DHT22;25538;48.392;9.976;2022-10-15T15:34:48;18.80;99.90
39865;DHT22;25538;48.392;9.976;2022-10-15T15:37:20;18.80;99.90
39865;DHT22;25538;48.392;9.976;2022-10-15T15:39:47;18.80;99.90
39865;DHT22;25538;48.392;9.976;2022-10-15T15:42:19;18.80;99.90
39865;DHT22;25538;48.392;9.976;2022-10-15T15:44:45;18.70;99.90
39865;DHT22;25538;48.392;9.976;2022-10-15T15:47:12;18.70;99.90
39865;DHT22;25538;48.392;9.976;2022-10-15T15:49:38;18.60;99.90
39865;DHT22;25538;48.392;9.976;2022-10-15T15:52:11;18.60;99.90
39865;DHT22;25538;48.392;9.976;2022-10-15T15:54:44;18.40;99.90
39865;DHT22;25538;48.392;9.976;2022-10-15T15:57:12;18.30;99.90
39865;DHT22;25538;48.392;9.976;2022-10-15T15:59:38;18.30;99.90
39865;DHT22;25538;48.392;9.976;2022-10-15T16:02:04;18.20;99.90
39865;DHT22;25538;48.392;9.976;2022-10-15T16:04:30;18.20;99.90
39865;DHT22;25538;48.392;9.976;2022-10-15T16:06:56;18.20;99.90
39865;DHT22;25538;48.392;9.976;2022-10-15T16:09:23;18.60;99.90
39865;DHT22;25538;48.392;9.976;2022-10-15T16:11:49;18.90;99.90
39865;DHT22;25538;48.392;9.976;2022-10-15T16:14:15;18.80;99.90
39865;DHT22;25538;48.392;9.976;2022-10-15T16:16:42;18.60;99.90
39865;DHT22;25538;48.392;9.976;2022-10-15T16:19:08;18.50;99.90
39865;DHT22;25538;48.392;9.976;2022-10-15T16:21:34;18.20;99.90
39865;DHT22;25538;48.392;9.976;2022-10-15T16:24:00;18.10;99.90
39865;DHT22;25538;48.392;9.976;2022-10-15T16:26:26;18.00;99.90
39865;DHT22;25538;48.392;9.976;2022-10-15T16:28:52;18.00;99.90
39865;DHT22;25538;48.392;9.976;2022-10-15T16:31:23;17.80;99.90
39865;DHT22;25538;48.392;9.976;2022-10-15T16:33:50;17.70;99.90
39865;DHT22;25538;48.392;9.976;2022-10-15T16:36:17;17.70;99.90
39865;DHT22;25538;48.392;9.976;2022-10-15T16:38:44;17.60;99.90
39865;DHT22;25538;48.392;9.976;2022-10-15T16:41:12;17.60;99.90
39865;DHT22;25538;48.392;9.976;2022-10-15T16:43:38;17.50;99.90
39865;DHT22;25538;48.392;9.976;2022-10-15T16:46:04;17.50;99.90
39865;DHT22;25538;48.392;9.976;2022-10-15T16:48:32;17.40;99.90
39865;DHT22;25538;48.392;9.976;2022-10-15T16:53:32;17.30;99.90
39865;DHT22;25538;48.392;9.976;2022-10-15T16:56:08;17.30;99.90
39865;DHT22;25538;48.392;9.976;2022-10-15T16:58:35;17.20;99.90
39865;DHT22;25538;48.392;9.976;2022-10-15T17:01:03;17.20;99.90
39865;DHT22;25538;48.392;9.976;2022-10-15T17:03:31;17.20;99.90
39865;DHT22;25538;48.392;9.976;2022-10-15T17:05:58;17.20;99.90
39865;DHT22;25538;48.392;9.976;2022-10-15T17:08:28;17.20;99.90
39865;DHT22;25538;48.392;9.976;2022-10-15T17:10:55;17.10;99.90
39865;DHT22;25538;48.392;9.976;2022-10-15T17:13:21;17.10;99.90
39865;DHT22;25538;48.392;9.976;2022-10-15T17:15:47;17.00;99.90
39865;DHT22;25538;48.392;9.976;2022-10-15T17:18:13;17.00;99.90
39865;DHT22;25538;48.392;9.976;2022-10-15T17:20:47;16.90;99.90
39865;DHT22;25538;48.392;9.976;2022-10-15T17:23:15;16.90;99.90
39865;DHT22;25538;48.392;9.976;2022-10-15T17:25:41;16.90;99.90
39865;DHT22;25538;48.392;9.976;2022-10-15T17:28:07;16.80;99.90
39865;DHT22;25538;48.392;9.976;2022-10-15T17:30:35;16.70;99.90
39865;DHT22;25538;48.392;9.976;2022-10-15T17:33:02;16.70;99.90
39865;DHT22;25538;48.392;9.976;2022-10-15T17:35:28;16.60;99.90
39865;DHT22;25538;48.392;9.976;2022-10-15T17:37:57;16.50;99.90
39865;DHT22;25538;48.392;9.976;2022-10-15T17:40:24;16.50;99.90
39865;DHT22;25538;48.392;9.976;2022-10-15T17:42:50;16.40;99.90
39865;DHT22;25538;48.392;9.976;2022-10-15T17:45:16;16.40;99.90
39865;DHT22;25538;48.392;9.976;2022-10-15T17:47:42;16.30;99.90
39865;DHT22;25538;48.392;9.976;2022-10-15T17:50:08;16.30;99.90
39865;DHT22;25538;48.392;9.976;2022-10-15T17:52:34;16.30;99.90
39865;DHT22;25538;48.392;9.976;2022-10-15T17:55:00;16.20;99.90